createdAt,value
2022-11-10T14:04:13.000Z,14.07
2022-11-10T14:04:13.000Z,14.12
2022-11-10T14:05:13.000Z,14.03
2022-11-10T14:06:13.000Z,14.05
2022-11-10T14:07:13.000Z,14.07
2022-11-10T14:08:13.000Z,14.07
2022-11-10T14:09:13.000Z,14.05
2022-11-10T14:10:13.000Z,13.97
2022-11-10T14:11:13.000Z,13.97
2022-11-10T14:12:13.000Z,13.96
2022-11-10T14:13:13.000Z,13.96
2022-11-10T14:14:13.000Z,13.92
2022-11-10T14:15:13.000Z,13.93
2022-11-10T14:16:13.000Z,13.92
2022-11-10T14:17:13.000Z,13.90
2022-11-10T14:18:13.000Z,13.86
2022-11-10T14:19:13.000Z,13.86
2022-11-10T14:20:13.000Z,13.89
2022-11-10T14:21:13.000Z,13.83
2022-11-10T14:22:13.000Z,13.90
2022-11-10T14:23:13.000Z,13.89
2022-11-10T14:24:13.000Z,13.86
2022-11-10T14:25:13.000Z,13.81
2022-11-10T14:26:13.000Z,13.81
2022-11-10T14:27:13.000Z,13.81
2022-11-10T14:28:13.000Z,13.79
2022-11-10T14:29:13.000Z,13.77
2022-11-10T14:30:13.000Z,13.77
2022-11-10T14:31:13.000Z,13.77
2022-11-10T14:32:13.000Z,13.71
2022-11-10T14:33:13.000Z,13.74
2022-11-10T14:34:13.000Z,13.71
2022-11-10T14:35:13.000Z,13.68
2022-11-10T14:36:13.000Z,13.65
2022-11-10T14:37:13.000Z,13.65
2022-11-10T14:38:13.000Z,13.65
2022-11-10T14:39:13.000Z,13.63
2022-11-10T14:40:13.000Z,13.59
2022-11-10T14:41:13.000Z,13.60
2022-11-10T14:42:13.000Z,13.57
2022-11-10T14:43:13.000Z,13.59
2022-11-10T14:44:13.000Z,13.52
2022-11-10T14:45:13.000Z,13.53
2022-11-10T14:46:13.000Z,13.50
2022-11-10T14:47:13.000Z,13.50
2022-11-10T14:48:13.000Z,13.49
2022-11-10T14:49:13.000Z,13.47
2022-11-10T14:50:13.000Z,13.44
2022-11-10T14:51:13.000Z,13.46
2022-11-10T14:52:13.000Z,13.46
2022-11-10T14:53:13.000Z,13.46
2022-11-10T14:54:13.000Z,13.42
2022-11-10T14:55:13.000Z,13.35
2022-11-10T14:56:13.000Z,13.38
2022-11-10T14:57:13.000Z,13.39
2022-11-10T14:58:13.000Z,13.37
2022-11-10T14:59:13.000Z,13.33
2022-11-10T15:00:13.000Z,13.31
2022-11-10T15:01:13.000Z,13.28
2022-11-10T15:02:13.000Z,13.23
2022-11-10T15:03:13.000Z,13.20
2022-11-10T15:04:13.000Z,13.22
2022-11-10T15:05:13.000Z,13.19
2022-11-10T15:06:13.000Z,13.19
2022-11-10T15:07:13.000Z,13.20
2022-11-10T15:08:12.000Z,13.12
2022-11-10T15:09:12.000Z,13.12
2022-11-10T15:10:12.000Z,13.12
2022-11-10T15:11:12.000Z,13.11
2022-11-10T15:12:12.000Z,13.05
2022-11-10T15:13:12.000Z,13.05
2022-11-10T15:14:12.000Z,13.01
2022-11-10T15:15:12.000Z,13.00
2022-11-10T15:16:12.000Z,12.94
2022-11-10T15:17:12.000Z,12.95
2022-11-10T15:18:12.000Z,12.91
2022-11-10T15:19:12.000Z,12.86
2022-11-10T15:20:12.000Z,12.85
2022-11-10T15:21:12.000Z,12.85
2022-11-10T15:22:12.000Z,12.82
2022-11-10T15:23:12.000Z,12.80
2022-11-10T15:24:12.000Z,12.79
2022-11-10T15:25:12.000Z,12.78
2022-11-10T15:26:12.000Z,12.75
2022-11-10T15:27:12.000Z,12.78
2022-11-10T15:28:12.000Z,12.70
2022-11-10T15:29:12.000Z,12.67
2022-11-10T15:30:12.000Z,12.67
2022-11-10T15:31:12.000Z,12.68
2022-11-10T15:32:12.000Z,12.65
2022-11-10T15:33:12.000Z,12.65
2022-11-10T15:34:12.000Z,12.61
2022-11-10T15:35:12.000Z,12.61
2022-11-10T15:36:12.000Z,12.60
2022-11-10T15:37:12.000Z,12.57
2022-11-10T15:38:12.000Z,12.55
2022-11-10T15:39:12.000Z,12.53
2022-11-10T15:40:12.000Z,12.49
2022-11-10T15:41:12.000Z,12.50
2022-11-10T15:42:12.000Z,12.49
2022-11-10T15:43:12.000Z,12.49
2022-11-10T15:44:12.000Z,12.46
2022-11-10T15:45:12.000Z,12.45
2022-11-10T15:46:12.000Z,12.39
2022-11-10T15:47:12.000Z,12.35
2022-11-10T15:48:12.000Z,12.36
2022-11-10T15:49:12.000Z,12.32
2022-11-10T15:50:12.000Z,12.32
2022-11-10T15:51:12.000Z,12.35
2022-11-10T15:52:12.000Z,12.32
2022-11-10T15:53:12.000Z,12.31
2022-11-10T15:54:12.000Z,12.28
2022-11-10T15:55:12.000Z,12.27
2022-11-10T15:56:12.000Z,12.24
2022-11-10T15:57:12.000Z,12.22
2022-11-10T15:58:12.000Z,12.20
2022-11-10T15:59:12.000Z,12.18
2022-11-10T16:00:12.000Z,12.20
2022-11-10T16:01:12.000Z,12.18
2022-11-10T16:02:12.000Z,12.13
2022-11-10T16:03:12.000Z,12.17
2022-11-10T16:04:12.000Z,12.09
2022-11-10T16:05:12.000Z,12.09
2022-11-10T16:06:12.000Z,12.03
2022-11-10T16:07:12.000Z,12.09
2022-11-10T16:08:12.000Z,12.04
2022-11-10T16:09:12.000Z,12.03
2022-11-10T16:10:12.000Z,11.99
2022-11-10T16:11:12.000Z,12.00
2022-11-10T16:12:12.000Z,11.97
2022-11-10T16:13:12.000Z,11.94
2022-11-10T16:14:12.000Z,11.94
2022-11-10T16:15:12.000Z,11.94
2022-11-10T16:16:12.000Z,11.91
2022-11-10T16:17:12.000Z,11.87
2022-11-10T16:18:12.000Z,11.88
2022-11-10T16:19:12.000Z,11.86
2022-11-10T16:20:12.000Z,11.83
2022-11-10T16:21:12.000Z,11.81
2022-11-10T16:22:12.000Z,11.80
2022-11-10T16:23:12.000Z,11.81
2022-11-10T16:24:12.000Z,11.80
2022-11-10T16:25:12.000Z,11.80
2022-11-10T16:26:12.000Z,11.73
2022-11-10T16:27:12.000Z,11.72
2022-11-10T16:28:12.000Z,11.70
2022-11-10T16:29:12.000Z,11.70
2022-11-10T16:30:12.000Z,11.72
2022-11-10T16:31:12.000Z,11.72
2022-11-10T16:32:12.000Z,11.72
2022-11-10T16:33:12.000Z,11.69
2022-11-10T16:34:12.000Z,11.70
2022-11-10T16:35:12.000Z,11.72
2022-11-10T16:36:12.000Z,11.72
2022-11-10T16:37:12.000Z,11.70
2022-11-10T16:38:12.000Z,11.70
2022-11-10T16:39:12.000Z,11.69
2022-11-10T16:40:12.000Z,11.69
2022-11-10T16:41:11.000Z,11.66
2022-11-10T16:42:11.000Z,11.63
2022-11-10T16:43:11.000Z,11.60
2022-11-10T16:44:11.000Z,11.57
2022-11-10T16:45:11.000Z,11.55
2022-11-10T16:46:11.000Z,11.52
2022-11-10T16:47:11.000Z,11.50
2022-11-10T16:48:11.000Z,11.52
2022-11-10T16:49:11.000Z,11.44
2022-11-10T16:50:11.000Z,11.41
2022-11-10T16:51:11.000Z,11.41
2022-11-10T16:52:11.000Z,11.40
2022-11-10T16:53:11.000Z,11.37
2022-11-10T16:54:11.000Z,11.40
2022-11-10T16:55:11.000Z,11.36
2022-11-10T16:56:11.000Z,11.37
2022-11-10T16:57:11.000Z,11.32
2022-11-10T16:58:11.000Z,11.32
2022-11-10T16:59:11.000Z,11.29
2022-11-10T17:00:11.000Z,11.29
2022-11-10T17:01:11.000Z,11.27
2022-11-10T17:02:11.000Z,11.23
2022-11-10T17:03:11.000Z,11.25
2022-11-10T17:04:11.000Z,11.25
2022-11-10T17:05:11.000Z,11.23
2022-11-10T17:06:11.000Z,11.17
2022-11-10T17:07:11.000Z,11.18
2022-11-10T17:08:11.000Z,11.15
2022-11-10T17:09:11.000Z,11.12
2022-11-10T17:10:11.000Z,11.10
2022-11-10T17:11:11.000Z,11.11
2022-11-10T17:12:11.000Z,11.11
2022-11-10T17:13:11.000Z,11.08
2022-11-10T17:14:11.000Z,11.08
2022-11-10T17:15:11.000Z,11.08
2022-11-10T17:16:11.000Z,11.04
2022-11-10T17:17:11.000Z,11.04
2022-11-10T17:18:11.000Z,11.04
2022-11-10T17:19:11.000Z,11.00
2022-11-10T17:20:11.000Z,11.04
2022-11-10T17:21:11.000Z,11.05
2022-11-10T17:22:11.000Z,11.05
2022-11-10T17:23:11.000Z,11.04
2022-11-10T17:24:11.000Z,11.08
2022-11-10T17:25:11.000Z,11.11
2022-11-10T17:26:11.000Z,11.04
2022-11-10T17:27:11.000Z,11.05
2022-11-10T17:28:11.000Z,11.05
2022-11-10T17:29:11.000Z,11.05
2022-11-10T17:30:11.000Z,11.04
2022-11-10T17:31:11.000Z,11.07
2022-11-10T17:32:11.000Z,10.99
2022-11-10T17:33:11.000Z,10.96
2022-11-10T17:34:11.000Z,10.96
2022-11-10T17:35:11.000Z,10.97
2022-11-10T17:36:11.000Z,10.96
2022-11-10T17:37:11.000Z,10.94
2022-11-10T17:38:11.000Z,10.94
2022-11-10T17:39:11.000Z,10.92
2022-11-10T17:40:11.000Z,10.92
2022-11-10T17:41:11.000Z,10.90
2022-11-10T17:42:11.000Z,10.92
2022-11-10T17:43:11.000Z,10.87
2022-11-10T17:44:11.000Z,10.93
2022-11-10T17:45:11.000Z,10.89
2022-11-10T17:46:11.000Z,10.92
2022-11-10T17:47:11.000Z,10.92
2022-11-10T17:48:11.000Z,10.89
2022-11-10T17:49:11.000Z,10.87
2022-11-10T17:50:11.000Z,10.89
2022-11-10T17:51:11.000Z,10.87
2022-11-10T17:52:11.000Z,10.86
2022-11-10T17:53:11.000Z,10.82
2022-11-10T17:54:11.000Z,10.84
2022-11-10T17:55:11.000Z,10.81
2022-11-10T17:56:11.000Z,10.79
2022-11-10T17:57:11.000Z,10.78
2022-11-10T17:58:11.000Z,10.74
2022-11-10T17:59:11.000Z,10.72
2022-11-10T18:00:11.000Z,10.75
2022-11-10T18:01:11.000Z,10.71
2022-11-10T18:02:11.000Z,10.69
2022-11-10T18:03:11.000Z,10.68
2022-11-10T18:04:11.000Z,10.69
2022-11-10T18:05:11.000Z,10.67
2022-11-10T18:06:11.000Z,10.63
2022-11-10T18:07:11.000Z,10.64
2022-11-10T18:08:11.000Z,10.64
2022-11-10T18:09:11.000Z,10.57
2022-11-10T18:10:11.000Z,10.63
2022-11-10T18:11:11.000Z,10.59
2022-11-10T18:12:11.000Z,10.54
2022-11-10T18:13:11.000Z,10.54
2022-11-10T18:14:11.000Z,10.54
2022-11-10T18:15:11.000Z,10.49
2022-11-10T18:16:10.000Z,10.49
2022-11-10T18:17:10.000Z,10.51
2022-11-10T18:18:10.000Z,10.46
2022-11-10T18:19:10.000Z,10.46
2022-11-10T18:20:10.000Z,10.49
2022-11-10T18:21:10.000Z,10.46
2022-11-10T18:22:10.000Z,10.44
2022-11-10T18:23:10.000Z,10.44
2022-11-10T18:24:10.000Z,10.46
2022-11-10T18:25:10.000Z,10.42
2022-11-10T18:26:10.000Z,10.42
2022-11-10T18:27:10.000Z,10.42
2022-11-10T18:28:10.000Z,10.38
2022-11-10T18:29:10.000Z,10.38
2022-11-10T18:30:10.000Z,10.38
2022-11-10T18:31:10.000Z,10.35
2022-11-10T18:32:10.000Z,10.37
2022-11-10T18:33:10.000Z,10.34
2022-11-10T18:34:10.000Z,10.31
2022-11-10T18:35:10.000Z,10.33
2022-11-10T18:36:10.000Z,10.30
2022-11-10T18:37:10.000Z,10.31
2022-11-10T18:38:10.000Z,10.28
2022-11-10T18:39:10.000Z,10.25
2022-11-10T18:40:10.000Z,10.28
2022-11-10T18:41:10.000Z,10.31
2022-11-10T18:42:10.000Z,10.28
2022-11-10T18:43:10.000Z,10.30
2022-11-10T18:44:10.000Z,10.25
2022-11-10T18:45:10.000Z,10.25
2022-11-10T18:46:10.000Z,10.25
2022-11-10T18:47:10.000Z,10.23
2022-11-10T18:48:10.000Z,10.23
2022-11-10T18:49:10.000Z,10.25
2022-11-10T18:50:10.000Z,10.25
2022-11-10T18:51:10.000Z,10.20
2022-11-10T18:52:10.000Z,10.22
2022-11-10T18:53:10.000Z,10.19
2022-11-10T18:54:10.000Z,10.17
2022-11-10T18:55:10.000Z,10.15
2022-11-10T18:56:10.000Z,10.16
2022-11-10T18:57:10.000Z,10.13
2022-11-10T18:58:10.000Z,10.17
2022-11-10T18:59:10.000Z,10.12
2022-11-10T19:00:10.000Z,10.13
2022-11-10T19:01:10.000Z,10.13
2022-11-10T19:02:10.000Z,10.13
2022-11-10T19:03:10.000Z,10.15
2022-11-10T19:04:10.000Z,10.15
2022-11-10T19:05:10.000Z,10.12
2022-11-10T19:06:10.000Z,10.15
2022-11-10T19:07:10.000Z,10.17
2022-11-10T19:08:10.000Z,10.15
2022-11-10T19:09:10.000Z,10.17
2022-11-10T19:10:10.000Z,10.15
2022-11-10T19:11:10.000Z,10.19
2022-11-10T19:12:10.000Z,10.15
2022-11-10T19:13:10.000Z,10.13
2022-11-10T19:14:10.000Z,10.16
2022-11-10T19:15:10.000Z,10.17
2022-11-10T19:16:10.000Z,10.13
2022-11-10T19:17:10.000Z,10.16
2022-11-10T19:18:10.000Z,10.19
2022-11-10T19:19:10.000Z,10.22
2022-11-10T19:20:10.000Z,10.19
2022-11-10T19:21:10.000Z,10.19
2022-11-10T19:22:10.000Z,10.23
2022-11-10T19:23:10.000Z,10.20
2022-11-10T19:24:10.000Z,10.17
2022-11-10T19:25:10.000Z,10.22
2022-11-10T19:26:10.000Z,10.20
2022-11-10T19:27:10.000Z,10.23
2022-11-10T19:28:10.000Z,10.20
2022-11-10T19:29:10.000Z,10.22
2022-11-10T19:30:10.000Z,10.20
2022-11-10T19:31:10.000Z,10.19
2022-11-10T19:32:10.000Z,10.16
2022-11-10T19:33:10.000Z,10.17
2022-11-10T19:34:10.000Z,10.17
2022-11-10T19:35:10.000Z,10.17
2022-11-10T19:36:10.000Z,10.20
2022-11-10T19:37:10.000Z,10.19
2022-11-10T19:38:10.000Z,10.19
2022-11-10T19:39:10.000Z,10.19
2022-11-10T19:40:10.000Z,10.17
2022-11-10T19:41:10.000Z,10.19
2022-11-10T19:42:10.000Z,10.16
2022-11-10T19:43:10.000Z,10.17
2022-11-10T19:44:10.000Z,10.15
2022-11-10T19:45:10.000Z,10.19
2022-11-10T19:46:10.000Z,10.16
2022-11-10T19:47:10.000Z,10.15
2022-11-10T19:48:10.000Z,10.15
2022-11-10T19:49:10.000Z,10.13
2022-11-10T19:50:10.000Z,10.05
2022-11-10T19:51:09.000Z,10.01
2022-11-10T19:52:09.000Z,10.02
2022-11-10T19:53:09.000Z,9.99
2022-11-10T19:54:09.000Z,9.95
2022-11-10T19:55:09.000Z,9.91
2022-11-10T19:56:09.000Z,9.92
2022-11-10T19:57:09.000Z,9.89
2022-11-10T19:58:09.000Z,9.87
2022-11-10T19:59:09.000Z,9.86
2022-11-10T20:00:09.000Z,9.84
2022-11-10T20:01:09.000Z,9.83
2022-11-10T20:02:09.000Z,9.77
2022-11-10T20:03:09.000Z,9.80
2022-11-10T20:04:09.000Z,9.76
2022-11-10T20:05:09.000Z,9.76
2022-11-10T20:06:09.000Z,9.74
2022-11-10T20:07:09.000Z,9.73
2022-11-10T20:08:09.000Z,9.76
2022-11-10T20:09:09.000Z,9.73
2022-11-10T20:10:09.000Z,9.73
2022-11-10T20:11:09.000Z,9.74
2022-11-10T20:12:09.000Z,9.76
2022-11-10T20:13:09.000Z,9.73
2022-11-10T20:14:09.000Z,9.72
2022-11-10T20:15:09.000Z,9.73
2022-11-10T20:16:09.000Z,9.76
2022-11-10T20:17:09.000Z,9.72
2022-11-10T20:18:09.000Z,9.73
2022-11-10T20:19:09.000Z,9.68
2022-11-10T20:20:09.000Z,9.66
2022-11-10T20:21:09.000Z,9.66
2022-11-10T20:22:09.000Z,9.69
2022-11-10T20:23:09.000Z,9.69
2022-11-10T20:24:09.000Z,9.69
2022-11-10T20:25:09.000Z,9.73
2022-11-10T20:26:09.000Z,9.72
2022-11-10T20:27:09.000Z,9.69
2022-11-10T20:28:09.000Z,9.72
2022-11-10T20:29:09.000Z,9.74
2022-11-10T20:30:09.000Z,9.74
2022-11-10T20:31:09.000Z,9.79
2022-11-10T20:32:09.000Z,9.74
2022-11-10T20:33:09.000Z,9.76
2022-11-10T20:34:09.000Z,9.77
2022-11-10T20:35:09.000Z,9.77
2022-11-10T20:36:09.000Z,9.73
2022-11-10T20:37:09.000Z,9.79
2022-11-10T20:38:09.000Z,9.79
2022-11-10T20:39:09.000Z,9.79
2022-11-10T20:40:09.000Z,9.77
2022-11-10T20:41:09.000Z,9.73
2022-11-10T20:42:09.000Z,9.74
2022-11-10T20:43:09.000Z,9.73
2022-11-10T20:44:09.000Z,9.72
2022-11-10T20:45:09.000Z,9.76
2022-11-10T20:46:09.000Z,9.72
2022-11-10T20:47:09.000Z,9.72
2022-11-10T20:48:09.000Z,9.74
2022-11-10T20:49:09.000Z,9.69
2022-11-10T20:50:09.000Z,9.68
2022-11-10T20:51:09.000Z,9.72
2022-11-10T20:52:09.000Z,9.73
2022-11-10T20:53:09.000Z,9.68
2022-11-10T20:54:09.000Z,9.68
2022-11-10T20:55:09.000Z,9.66
2022-11-10T20:56:09.000Z,9.68
2022-11-10T20:57:09.000Z,9.61
2022-11-10T20:58:09.000Z,9.62
2022-11-10T20:59:09.000Z,9.56
2022-11-10T21:00:09.000Z,9.54
2022-11-10T21:01:09.000Z,9.51
2022-11-10T21:02:09.000Z,9.47
2022-11-10T21:03:09.000Z,9.43
2022-11-10T21:04:09.000Z,9.41
2022-11-10T21:05:09.000Z,9.37
2022-11-10T21:06:09.000Z,9.31
2022-11-10T21:07:09.000Z,9.29
2022-11-10T21:08:09.000Z,9.23
2022-11-10T21:09:09.000Z,9.22
2022-11-10T21:10:09.000Z,9.18
2022-11-10T21:11:09.000Z,9.18
2022-11-10T21:12:09.000Z,9.14
2022-11-10T21:13:09.000Z,9.13
2022-11-10T21:14:09.000Z,9.11
2022-11-10T21:15:09.000Z,9.08
2022-11-10T21:16:09.000Z,9.02
2022-11-10T21:17:09.000Z,9.02
2022-11-10T21:18:09.000Z,9.00
2022-11-10T21:19:09.000Z,8.99
2022-11-10T21:20:09.000Z,8.92
2022-11-10T21:21:09.000Z,8.97
2022-11-10T21:22:09.000Z,8.95
2022-11-10T21:23:09.000Z,8.95
2022-11-10T21:24:09.000Z,8.94
2022-11-10T21:25:09.000Z,8.94
2022-11-10T21:26:08.000Z,8.92
2022-11-10T21:27:08.000Z,8.92
2022-11-10T21:28:08.000Z,8.91
2022-11-10T21:29:08.000Z,8.91
2022-11-10T21:30:08.000Z,8.87
2022-11-10T21:31:08.000Z,8.87
2022-11-10T21:32:08.000Z,8.82
2022-11-10T21:33:08.000Z,8.81
2022-11-10T21:34:08.000Z,8.79
2022-11-10T21:35:08.000Z,8.81
2022-11-10T21:36:08.000Z,8.74
2022-11-10T21:37:08.000Z,8.74
2022-11-10T21:38:08.000Z,8.70
2022-11-10T21:39:08.000Z,8.70
2022-11-10T21:40:08.000Z,8.64
2022-11-10T21:41:08.000Z,8.64
2022-11-10T21:42:08.000Z,8.63
2022-11-10T21:43:08.000Z,8.61
2022-11-10T21:44:08.000Z,8.60
2022-11-10T21:45:08.000Z,8.56
2022-11-10T21:46:08.000Z,8.55
2022-11-10T21:47:08.000Z,8.51
2022-11-10T21:48:08.000Z,8.51
2022-11-10T21:49:08.000Z,8.48
2022-11-10T21:50:08.000Z,8.46
2022-11-10T21:51:08.000Z,8.45
2022-11-10T21:52:08.000Z,8.44
2022-11-10T21:53:08.000Z,8.38
2022-11-10T21:54:08.000Z,8.38
2022-11-10T21:55:08.000Z,8.36
2022-11-10T21:56:08.000Z,8.36
2022-11-10T21:57:08.000Z,8.33
2022-11-10T21:58:08.000Z,8.28
2022-11-10T21:59:08.000Z,8.26
2022-11-10T22:00:08.000Z,8.26
2022-11-10T22:01:08.000Z,8.16
2022-11-10T22:02:08.000Z,8.13
2022-11-10T22:03:08.000Z,8.13
2022-11-10T22:03:08.000Z,8.13
2022-11-10T22:04:08.000Z,8.13
2022-11-10T22:04:08.000Z,8.13
2022-11-10T22:05:08.000Z,8.08
2022-11-10T22:05:08.000Z,8.08
2022-11-10T22:06:08.000Z,8.08
2022-11-10T22:06:08.000Z,8.08
2022-11-10T22:07:08.000Z,8.08
2022-11-10T22:07:08.000Z,8.08
2022-11-10T22:08:08.000Z,8.06
2022-11-10T22:09:08.000Z,8.00
2022-11-10T22:10:08.000Z,8.00
2022-11-10T22:11:08.000Z,8.00
2022-11-10T22:12:08.000Z,7.94
2022-11-10T22:13:08.000Z,7.94
2022-11-10T22:14:08.000Z,7.91
2022-11-10T22:15:08.000Z,7.91
2022-11-10T22:16:08.000Z,7.88
2022-11-10T22:17:08.000Z,7.87
2022-11-10T22:18:08.000Z,7.87
2022-11-10T22:19:08.000Z,7.83
2022-11-10T22:20:08.000Z,7.82
2022-11-10T22:21:08.000Z,7.83
2022-11-10T22:22:08.000Z,7.82
2022-11-10T22:23:08.000Z,7.83
2022-11-10T22:24:08.000Z,7.83
2022-11-10T22:25:08.000Z,7.79
2022-11-10T22:26:08.000Z,7.79
2022-11-10T22:27:08.000Z,7.77
2022-11-10T22:28:08.000Z,7.76
2022-11-10T22:29:08.000Z,7.72
2022-11-10T22:30:08.000Z,7.70
2022-11-10T22:31:08.000Z,7.70
2022-11-10T22:32:08.000Z,7.63
2022-11-10T22:33:08.000Z,7.63
2022-11-10T22:34:08.000Z,7.61
2022-11-10T22:35:08.000Z,7.58
2022-11-10T22:36:08.000Z,7.57
2022-11-10T22:37:08.000Z,7.60
2022-11-10T22:38:08.000Z,7.53
2022-11-10T22:39:08.000Z,7.53
2022-11-10T22:40:08.000Z,7.48
2022-11-10T22:41:08.000Z,7.47
2022-11-10T22:42:08.000Z,7.50
2022-11-10T22:43:08.000Z,7.45
2022-11-10T22:44:08.000Z,7.47
2022-11-10T22:45:08.000Z,7.48
2022-11-10T22:46:08.000Z,7.45
2022-11-10T22:47:08.000Z,7.45
2022-11-10T22:48:08.000Z,7.47
2022-11-10T22:49:08.000Z,7.45
2022-11-10T22:50:08.000Z,7.50
2022-11-10T22:51:08.000Z,7.45
2022-11-10T22:52:08.000Z,7.39
2022-11-10T22:53:08.000Z,7.43
2022-11-10T22:54:08.000Z,7.47
2022-11-10T22:55:08.000Z,7.39
2022-11-10T22:56:08.000Z,7.42
2022-11-10T22:57:08.000Z,7.43
2022-11-10T22:58:08.000Z,7.42
2022-11-10T22:59:08.000Z,7.45
2022-11-10T23:00:08.000Z,7.42
2022-11-10T23:01:08.000Z,7.43
2022-11-10T23:02:07.000Z,7.42
2022-11-10T23:03:07.000Z,7.42
2022-11-10T23:04:07.000Z,7.40
2022-11-10T23:05:07.000Z,7.40
2022-11-10T23:06:07.000Z,7.42
2022-11-10T23:07:07.000Z,7.42
2022-11-10T23:08:07.000Z,7.39
2022-11-10T23:09:07.000Z,7.35
2022-11-10T23:10:07.000Z,7.39
2022-11-10T23:11:07.000Z,7.36
2022-11-10T23:12:07.000Z,7.36
2022-11-10T23:13:07.000Z,7.33
2022-11-10T23:14:07.000Z,7.31
2022-11-10T23:15:07.000Z,7.31
2022-11-10T23:16:07.000Z,7.25
2022-11-10T23:17:07.000Z,7.28
2022-11-10T23:18:07.000Z,7.25
2022-11-10T23:19:07.000Z,7.25
2022-11-10T23:20:07.000Z,7.23
2022-11-10T23:21:07.000Z,7.23
2022-11-10T23:22:07.000Z,7.20
2022-11-10T23:23:07.000Z,7.17
2022-11-10T23:24:07.000Z,7.17
2022-11-10T23:25:07.000Z,7.17
2022-11-10T23:26:07.000Z,7.18
2022-11-10T23:27:07.000Z,7.15
2022-11-10T23:28:07.000Z,7.14
2022-11-10T23:29:07.000Z,7.17
2022-11-10T23:30:07.000Z,7.15
2022-11-10T23:31:07.000Z,7.14
2022-11-10T23:32:07.000Z,7.15
2022-11-10T23:33:07.000Z,7.14
2022-11-10T23:34:07.000Z,7.15
2022-11-10T23:35:07.000Z,7.14
2022-11-10T23:36:07.000Z,7.15
2022-11-10T23:37:07.000Z,7.14
2022-11-10T23:38:07.000Z,7.20
2022-11-10T23:39:07.000Z,7.17
2022-11-10T23:40:07.000Z,7.15
2022-11-10T23:41:07.000Z,7.17
2022-11-10T23:42:07.000Z,7.20
2022-11-10T23:43:07.000Z,7.20
2022-11-10T23:44:07.000Z,7.18
2022-11-10T23:45:07.000Z,7.17
2022-11-10T23:46:07.000Z,7.18
2022-11-10T23:47:07.000Z,7.17
2022-11-10T23:48:07.000Z,7.21
2022-11-10T23:49:07.000Z,7.14
2022-11-10T23:50:07.000Z,7.17
2022-11-10T23:51:07.000Z,7.17
2022-11-10T23:52:07.000Z,7.14
2022-11-10T23:53:07.000Z,7.10
2022-11-10T23:54:07.000Z,7.10
2022-11-10T23:55:07.000Z,7.07
2022-11-10T23:56:07.000Z,7.06
2022-11-10T23:57:07.000Z,7.05
2022-11-10T23:58:07.000Z,7.02
2022-11-10T23:59:07.000Z,7.02
